createdAt,value
2022-11-24T00:01:30.554Z,94.38
2022-11-24T00:04:02.834Z,94.37
2022-11-24T00:06:29.895Z,94.13
2022-11-24T00:08:57.166Z,94.37
2022-11-24T00:11:29.118Z,94.29
2022-11-24T00:13:56.176Z,94.14
2022-11-24T00:16:24.079Z,94.11
2022-11-24T00:18:56.016Z,94.27
2022-11-24T00:21:23.367Z,94.03
2022-11-24T00:23:50.617Z,94.06
2022-11-24T00:26:25.131Z,94.04
2022-11-24T00:28:53.490Z,94.30
2022-11-24T00:31:35.098Z,93.85
2022-11-24T00:34:04.394Z,93.62
2022-11-24T00:36:32.861Z,93.73
2022-11-24T00:39:02.164Z,94.11
2022-11-24T00:41:29.505Z,93.72
2022-11-24T00:43:56.859Z,94.20
2022-11-24T00:46:23.897Z,93.80
2022-11-24T00:48:50.927Z,94.14
2022-11-24T00:51:19.127Z,93.84
2022-11-24T00:53:45.595Z,93.87
2022-11-24T00:56:12.520Z,93.86
2022-11-24T00:58:39.557Z,93.85
2022-11-24T01:01:12.671Z,93.75
2022-11-24T01:03:39.662Z,93.83
2022-11-24T01:06:14.841Z,93.89
2022-11-24T01:08:42.287Z,93.81
2022-11-24T01:11:17.949Z,93.98
2022-11-24T01:13:47.048Z,93.75
2022-11-24T01:16:25.842Z,93.86
2022-11-24T01:18:52.896Z,93.68
2022-11-24T01:21:20.288Z,93.99
2022-11-24T01:23:46.932Z,93.95
2022-11-24T01:26:18.659Z,93.70
2022-11-24T01:28:47.594Z,93.91
2022-11-24T01:31:15.531Z,93.90
2022-11-24T01:33:42.334Z,93.38
2022-11-24T01:36:08.774Z,93.32
2022-11-24T01:38:35.281Z,93.16
2022-11-24T01:41:08.476Z,93.32
2022-11-24T01:43:34.934Z,93.39
2022-11-24T01:46:39.064Z,92.92
2022-11-24T01:49:08.534Z,93.07
2022-11-24T01:51:42.298Z,93.19
2022-11-24T01:54:14.045Z,93.49
2022-11-24T01:56:43.548Z,93.32
2022-11-24T01:59:13.858Z,93.29
2022-11-24T02:01:40.396Z,93.10
2022-11-24T02:04:11.516Z,93.16
2022-11-24T02:06:40.781Z,92.78
2022-11-24T02:09:10.509Z,92.85
2022-11-24T02:11:40.419Z,92.71
2022-11-24T02:14:10.377Z,92.90
2022-11-24T02:16:37.379Z,92.62
2022-11-24T02:19:14.623Z,92.66
2022-11-24T02:21:41.149Z,92.58
2022-11-24T02:24:21.818Z,92.54
2022-11-24T02:26:49.650Z,92.47
2022-11-24T02:29:16.055Z,92.54
2022-11-24T02:31:47.987Z,92.42
2022-11-24T02:34:14.636Z,92.68
2022-11-24T02:36:41.031Z,92.19
2022-11-24T02:39:14.790Z,92.13
2022-11-24T02:41:59.406Z,92.38
2022-11-24T02:44:30.437Z,92.24
2022-11-24T02:47:09.154Z,92.07
2022-11-24T02:49:36.092Z,91.83
2022-11-24T02:52:03.284Z,91.81
2022-11-24T02:54:29.704Z,91.75
2022-11-24T02:56:56.487Z,91.58
2022-11-24T02:59:23.354Z,91.57
2022-11-24T03:01:49.964Z,91.73
2022-11-24T03:04:16.409Z,91.45
2022-11-24T03:06:43.355Z,91.87
2022-11-24T03:09:11.391Z,91.42
2022-11-24T03:11:38.894Z,91.64
2022-11-24T03:14:06.051Z,91.25
2022-11-24T03:16:33.079Z,91.24
2022-11-24T03:18:59.762Z,91.12
2022-11-24T03:21:29.182Z,91.04
2022-11-24T03:23:55.604Z,90.94
2022-11-24T03:26:23.921Z,91.03
2022-11-24T03:28:55.653Z,91.28
2022-11-24T03:31:23.501Z,91.22
2022-11-24T03:33:50.035Z,91.11
2022-11-24T03:36:16.800Z,90.98
2022-11-24T03:38:43.628Z,90.75
2022-11-24T03:41:14.879Z,90.79
2022-11-24T03:43:44.037Z,91.05
2022-11-24T03:46:11.910Z,90.46
2022-11-24T03:48:38.380Z,90.69
2022-11-24T03:51:04.919Z,90.69
2022-11-24T03:53:33.591Z,90.46
2022-11-24T03:56:00.851Z,90.69
2022-11-24T03:58:27.807Z,90.00
2022-11-24T04:00:55.909Z,90.01
2022-11-24T04:03:22.487Z,90.04
2022-11-24T04:05:49.293Z,89.80
2022-11-24T04:08:16.231Z,89.98
2022-11-24T04:10:43.119Z,90.02
2022-11-24T04:13:15.137Z,89.99
2022-11-24T04:15:43.057Z,89.90
2022-11-24T04:18:11.473Z,89.74
2022-11-24T04:20:38.516Z,89.96
2022-11-24T04:23:04.997Z,89.24
2022-11-24T04:25:31.872Z,89.72
2022-11-24T04:27:58.390Z,89.73
2022-11-24T04:30:26.428Z,90.13
2022-11-24T04:32:53.142Z,90.29
2022-11-24T04:35:19.810Z,90.09
2022-11-24T04:37:46.598Z,90.34
2022-11-24T04:40:13.578Z,90.47
2022-11-24T04:42:40.102Z,90.43
2022-11-24T04:45:07.494Z,90.69
2022-11-24T04:47:34.048Z,90.84
2022-11-24T04:50:00.466Z,90.74
2022-11-24T04:52:27.015Z,91.00
2022-11-24T04:54:53.604Z,91.05
2022-11-24T04:57:22.839Z,91.39
2022-11-24T04:59:53.030Z,91.42
2022-11-24T05:02:23.316Z,91.20
2022-11-24T05:04:49.816Z,91.39
2022-11-24T05:07:19.000Z,91.36
2022-11-24T05:10:05.208Z,91.41
2022-11-24T05:12:31.706Z,91.42
2022-11-24T05:14:59.499Z,91.62
2022-11-24T05:17:31.427Z,91.54
2022-11-24T05:19:58.350Z,91.54
2022-11-24T05:22:25.301Z,91.41
2022-11-24T05:24:51.713Z,91.47
2022-11-24T05:27:18.121Z,91.54
2022-11-24T05:29:44.452Z,91.40
2022-11-24T05:32:10.931Z,90.53
2022-11-24T05:34:37.849Z,90.09
2022-11-24T05:37:04.775Z,89.81
2022-11-24T05:39:32.871Z,89.66
2022-11-24T05:41:59.538Z,89.17
2022-11-24T05:44:25.976Z,89.37
2022-11-24T05:46:52.383Z,89.43
2022-11-24T05:49:19.301Z,89.27
2022-11-24T05:51:45.701Z,89.42
2022-11-24T05:54:12.038Z,89.45
2022-11-24T05:56:38.459Z,89.49
2022-11-24T05:59:09.612Z,90.24
2022-11-24T06:01:36.515Z,90.10
2022-11-24T06:04:02.944Z,90.56
2022-11-24T06:06:29.383Z,90.60
2022-11-24T06:08:55.740Z,90.56
2022-11-24T06:11:25.311Z,90.21
2022-11-24T06:13:51.747Z,90.64
2022-11-24T06:16:18.586Z,90.62
2022-11-24T06:18:45.148Z,90.52
2022-11-24T06:21:14.356Z,90.21
2022-11-24T06:23:40.940Z,90.41
2022-11-24T06:26:07.724Z,90.14
2022-11-24T06:28:34.058Z,90.32
2022-11-24T06:31:04.204Z,90.35
2022-11-24T06:33:33.428Z,90.66
2022-11-24T06:36:05.374Z,90.81
2022-11-24T06:38:32.528Z,90.69
2022-11-24T06:41:11.819Z,90.77
2022-11-24T06:43:38.614Z,91.17
2022-11-24T06:46:05.491Z,91.23
2022-11-24T06:48:32.113Z,91.50
2022-11-24T06:51:03.576Z,91.70
2022-11-24T06:53:31.509Z,92.06
2022-11-24T06:56:02.061Z,92.47
2022-11-24T06:58:28.428Z,92.69
2022-11-24T07:00:54.881Z,92.70
2022-11-24T07:03:21.665Z,92.95
2022-11-24T07:05:48.133Z,93.12
2022-11-24T07:08:17.969Z,93.41
2022-11-24T07:10:44.701Z,93.28
2022-11-24T07:13:11.166Z,93.71
2022-11-24T07:15:37.609Z,93.82
2022-11-24T07:18:09.837Z,93.86
2022-11-24T07:20:39.072Z,94.14
2022-11-24T07:23:06.680Z,94.65
2022-11-24T07:25:33.034Z,94.66
2022-11-24T07:27:59.954Z,94.74
2022-11-24T07:30:27.694Z,94.77
2022-11-24T07:33:01.474Z,94.37
2022-11-24T07:35:29.186Z,94.64
2022-11-24T07:37:56.694Z,94.40
2022-11-24T07:40:24.017Z,94.75
2022-11-24T07:42:50.569Z,94.32
2022-11-24T07:45:17.053Z,94.56
2022-11-24T07:47:43.582Z,94.97
2022-11-24T07:50:11.273Z,94.67
2022-11-24T07:52:38.404Z,94.30
2022-11-24T07:55:05.541Z,94.54
2022-11-24T07:57:31.960Z,94.69
2022-11-24T07:59:58.271Z,94.31
2022-11-24T08:02:24.694Z,94.38
2022-11-24T08:04:51.311Z,94.43
2022-11-24T08:07:17.776Z,94.86
2022-11-24T08:09:44.237Z,94.27
2022-11-24T08:12:10.567Z,94.62
2022-11-24T08:14:37.066Z,94.75
2022-11-24T08:17:03.839Z,94.93
2022-11-24T08:19:32.992Z,94.88
2022-11-24T08:21:59.357Z,94.83
2022-11-24T08:24:27.335Z,94.88
2022-11-24T08:26:53.753Z,94.51
2022-11-24T08:29:20.219Z,94.59
2022-11-24T08:31:46.638Z,95.07
2022-11-24T08:34:13.156Z,94.70
2022-11-24T08:36:39.713Z,95.05
2022-11-24T08:39:06.272Z,94.95
2022-11-24T08:41:33.231Z,94.91
2022-11-24T08:43:59.604Z,95.14
2022-11-24T08:46:26.041Z,95.52
2022-11-24T08:48:55.658Z,95.83
2022-11-24T08:51:27.287Z,95.73
2022-11-24T08:53:58.350Z,95.57
2022-11-24T08:56:29.974Z,94.88
2022-11-24T08:58:57.125Z,94.79
2022-11-24T09:01:24.759Z,94.54
2022-11-24T09:03:52.128Z,94.29
2022-11-24T09:06:22.764Z,94.28
2022-11-24T09:08:49.884Z,94.00
2022-11-24T09:11:17.211Z,93.67
2022-11-24T09:13:44.551Z,92.54
2022-11-24T09:16:19.002Z,91.75
2022-11-24T09:18:48.920Z,92.12
2022-11-24T09:21:18.806Z,90.39
2022-11-24T09:23:50.232Z,89.84
2022-11-24T09:26:20.449Z,89.25
2022-11-24T09:28:48.016Z,87.76
2022-11-24T09:31:20.639Z,87.37
2022-11-24T09:33:47.261Z,86.09
2022-11-24T09:36:14.552Z,85.01
2022-11-24T09:38:41.353Z,84.28
2022-11-24T09:41:23.126Z,83.14
2022-11-24T09:44:14.774Z,82.35
2022-11-24T09:47:18.494Z,80.93
2022-11-24T09:49:58.411Z,80.13
2022-11-24T09:52:48.135Z,80.87
2022-11-24T09:55:39.768Z,79.21
2022-11-24T09:58:18.563Z,76.96
2022-11-24T10:00:46.657Z,77.13
2022-11-24T10:03:19.708Z,75.90
2022-11-24T10:05:50.189Z,71.85
2022-11-24T10:08:33.279Z,71.03
2022-11-24T10:11:02.793Z,67.98
2022-11-24T10:14:06.953Z,63.63
2022-11-24T10:16:36.408Z,65.36
2022-11-24T10:19:37.905Z,63.39
2022-11-24T10:22:22.312Z,65.00
2022-11-24T10:25:07.909Z,66.58
2022-11-24T10:27:39.198Z,65.67
2022-11-24T10:30:15.415Z,65.16
2022-11-24T10:32:46.541Z,62.65
2022-11-24T10:35:22.407Z,61.77
2022-11-24T10:37:53.682Z,60.36
2022-11-24T10:40:57.413Z,60.08
2022-11-24T10:43:28.466Z,60.43
2022-11-24T10:46:04.954Z,59.60
2022-11-24T10:48:49.588Z,59.86
2022-11-24T10:51:28.009Z,59.03
2022-11-24T10:54:01.478Z,60.27
2022-11-24T10:56:38.733Z,61.90
2022-11-24T10:59:20.538Z,63.87
2022-11-24T11:01:47.254Z,65.21
2022-11-24T11:04:31.636Z,65.50
2022-11-24T11:07:30.249Z,66.28
2022-11-24T11:10:22.725Z,64.91
2022-11-24T11:12:49.313Z,61.54
2022-11-24T11:15:41.919Z,59.55
2022-11-24T11:18:16.156Z,58.73
2022-11-24T11:20:50.536Z,58.41
2022-11-24T11:23:23.911Z,56.48
2022-11-24T11:25:50.434Z,56.40
2022-11-24T11:28:30.018Z,54.81
2022-11-24T11:31:22.030Z,53.32
2022-11-24T11:34:26.730Z,52.25
2022-11-24T11:36:57.243Z,51.84
2022-11-24T11:39:35.556Z,52.42
2022-11-24T11:42:45.373Z,51.61
2022-11-24T11:45:05.520Z,50.52
2022-11-24T11:47:41.544Z,50.50
2022-11-24T11:50:16.452Z,49.68
2022-11-24T11:52:59.559Z,48.67
2022-11-24T11:55:34.018Z,47.39
2022-11-24T11:58:21.644Z,47.86
2022-11-24T12:01:17.146Z,47.03
2022-11-24T12:03:59.752Z,47.14
2022-11-24T12:07:03.533Z,47.34
2022-11-24T12:10:06.727Z,46.44
2022-11-24T12:13:03.376Z,46.69
2022-11-24T12:15:53.101Z,46.13
2022-11-24T12:21:26.566Z,47.30
2022-11-24T12:24:00.707Z,46.46
2022-11-24T12:26:30.027Z,46.52
2022-11-24T12:29:08.550Z,47.24
2022-11-24T12:32:08.276Z,47.11
2022-11-24T12:34:46.611Z,46.67
2022-11-24T12:37:35.060Z,47.13
2022-11-24T12:40:01.387Z,47.50
2022-11-24T12:43:06.891Z,47.16
2022-11-24T12:46:20.281Z,47.00
2022-11-24T12:49:08.582Z,47.12
2022-11-24T12:51:52.075Z,47.16
2022-11-24T12:54:21.010Z,47.71
2022-11-24T12:57:12.501Z,47.30
2022-11-24T13:00:07.749Z,47.94
2022-11-24T13:02:49.382Z,48.52
2022-11-24T13:05:27.844Z,48.54
2022-11-24T13:08:01.340Z,48.34
2022-11-24T13:13:19.688Z,48.11
2022-11-24T13:18:57.214Z,48.95
2022-11-24T13:21:47.185Z,49.30
2022-11-24T13:24:16.936Z,49.52
2022-11-24T13:26:49.514Z,50.15
2022-11-24T13:29:28.516Z,50.15
2022-11-24T13:32:15.341Z,50.68
2022-11-24T13:34:49.826Z,51.07
2022-11-24T13:37:40.435Z,51.95
2022-11-24T13:40:13.294Z,53.00
2022-11-24T13:42:54.798Z,53.77
2022-11-24T13:45:39.770Z,55.41
2022-11-24T13:48:22.683Z,56.22
2022-11-24T13:50:53.273Z,56.44
2022-11-24T13:53:34.984Z,57.14
2022-11-24T13:56:09.581Z,57.82
2022-11-24T13:58:41.046Z,58.25
2022-11-24T14:01:17.768Z,58.18
2022-11-24T14:04:35.000Z,58.69
2022-11-24T14:07:14.363Z,58.78
2022-11-24T14:09:44.863Z,58.79
2022-11-24T14:12:26.644Z,59.15
2022-11-24T14:14:56.830Z,59.50
2022-11-24T14:17:27.735Z,59.75
2022-11-24T14:19:58.764Z,60.05
2022-11-24T14:22:40.277Z,60.54
2022-11-24T14:25:30.702Z,60.79
2022-11-24T14:27:59.061Z,60.48
2022-11-24T14:30:26.394Z,60.84
2022-11-24T14:32:55.230Z,61.09
2022-11-24T14:35:30.360Z,61.64
2022-11-24T14:37:57.127Z,61.79
2022-11-24T14:40:46.005Z,62.47
2022-11-24T14:43:32.825Z,63.22
2022-11-24T14:46:02.655Z,62.97
2022-11-24T14:48:32.267Z,63.12
2022-11-24T14:51:15.969Z,63.56
2022-11-24T14:53:45.340Z,63.52
2022-11-24T14:56:33.183Z,63.45
2022-11-24T14:58:59.950Z,63.83
2022-11-24T15:01:26.421Z,63.82
2022-11-24T15:04:26.491Z,64.16
2022-11-24T15:07:25.494Z,64.71
2022-11-24T15:09:54.852Z,64.61
2022-11-24T15:12:30.523Z,64.61
2022-11-24T15:15:01.469Z,65.13
2022-11-24T15:17:29.432Z,65.22
2022-11-24T15:20:07.852Z,65.34
2022-11-24T15:22:36.707Z,65.72
2022-11-24T15:25:24.146Z,66.04
2022-11-24T15:27:51.272Z,66.23
2022-11-24T15:30:17.772Z,66.17
2022-11-24T15:32:50.811Z,66.80
2022-11-24T15:35:17.246Z,67.45
2022-11-24T15:37:43.661Z,67.65
2022-11-24T15:40:11.742Z,67.39
2022-11-24T15:42:38.156Z,68.23
2022-11-24T15:45:05.546Z,68.66
2022-11-24T15:47:31.891Z,69.58
2022-11-24T15:49:58.275Z,69.93
2022-11-24T15:52:24.662Z,70.36
2022-11-24T15:54:55.384Z,70.94
2022-11-24T15:57:21.824Z,71.29
2022-11-24T15:59:48.279Z,71.32
2022-11-24T16:02:14.706Z,71.71
2022-11-24T16:04:41.643Z,72.39
2022-11-24T16:07:14.740Z,72.40
2022-11-24T16:09:41.201Z,73.11
2022-11-24T16:12:10.804Z,73.67
2022-11-24T16:14:37.472Z,73.88
2022-11-24T16:17:05.162Z,73.69
2022-11-24T16:19:42.053Z,73.50
2022-11-24T16:22:12.083Z,73.88
2022-11-24T16:24:39.243Z,73.77
2022-11-24T16:27:05.586Z,75.13
2022-11-24T16:29:36.907Z,75.12
2022-11-24T16:32:05.191Z,75.70
2022-11-24T16:34:31.904Z,75.81
2022-11-24T16:36:58.456Z,75.96
2022-11-24T16:39:24.831Z,76.48
2022-11-24T16:41:51.252Z,76.51
2022-11-24T16:44:17.607Z,76.47
2022-11-24T16:46:44.687Z,76.79
2022-11-24T16:49:11.152Z,76.74
2022-11-24T16:51:37.792Z,77.26
2022-11-24T16:54:04.406Z,77.00
2022-11-24T16:56:31.434Z,77.31
2022-11-24T16:58:57.879Z,77.60
2022-11-24T17:01:25.831Z,77.85
2022-11-24T17:03:52.282Z,77.60
2022-11-24T17:06:19.084Z,77.61
2022-11-24T17:08:49.209Z,77.84
2022-11-24T17:11:19.591Z,78.09
2022-11-24T17:13:47.323Z,78.39
2022-11-24T17:16:16.711Z,78.47
2022-11-24T17:18:44.055Z,78.79
2022-11-24T17:21:15.179Z,78.93
2022-11-24T17:23:42.077Z,79.04
2022-11-24T17:26:12.381Z,79.17
2022-11-24T17:28:39.678Z,79.27
2022-11-24T17:31:18.839Z,79.14
2022-11-24T17:33:45.382Z,78.98
2022-11-24T17:36:11.755Z,79.24
2022-11-24T17:38:38.229Z,79.33
2022-11-24T17:41:05.112Z,79.55
2022-11-24T17:43:36.236Z,79.48
2022-11-24T17:46:18.052Z,79.70
2022-11-24T17:48:47.872Z,79.82
2022-11-24T17:51:16.797Z,80.57
2022-11-24T17:53:45.878Z,80.22
2022-11-24T17:56:14.631Z,80.42
2022-11-24T17:58:44.002Z,80.69
2022-11-24T18:01:12.221Z,80.75
2022-11-24T18:03:39.763Z,80.44
2022-11-24T18:06:14.166Z,80.74
2022-11-24T18:08:43.027Z,81.02
2022-11-24T18:11:16.720Z,81.01
2022-11-24T18:14:00.960Z,81.04
2022-11-24T18:16:30.232Z,80.87
2022-11-24T18:19:14.068Z,81.08
2022-11-24T18:21:42.153Z,80.81
2022-11-24T18:24:10.235Z,80.99
2022-11-24T18:26:37.192Z,81.07
2022-11-24T18:29:03.918Z,81.21
2022-11-24T18:31:31.273Z,80.83
2022-11-24T18:33:57.801Z,80.60
2022-11-24T18:36:30.034Z,80.80
2022-11-24T18:38:57.672Z,80.61
2022-11-24T18:41:25.979Z,80.58
2022-11-24T18:43:52.801Z,80.82
2022-11-24T18:46:19.520Z,80.43
2022-11-24T18:48:46.983Z,80.37
2022-11-24T18:51:17.638Z,80.44
2022-11-24T18:53:45.960Z,81.04
2022-11-24T18:56:15.348Z,80.92
2022-11-24T18:58:42.704Z,81.13
2022-11-24T19:01:13.631Z,81.05
2022-11-24T19:03:48.061Z,81.24
2022-11-24T19:06:19.559Z,81.53
2022-11-24T19:08:46.511Z,81.32
2022-11-24T19:11:18.009Z,81.04
2022-11-24T19:13:44.502Z,81.53
2022-11-24T19:16:12.285Z,81.76
2022-11-24T19:18:38.757Z,81.80
2022-11-24T19:21:05.773Z,81.65
2022-11-24T19:23:32.204Z,81.88
2022-11-24T19:26:03.084Z,82.07
2022-11-24T19:28:30.078Z,82.02
2022-11-24T19:31:08.258Z,82.07
2022-11-24T19:33:35.287Z,82.06
2022-11-24T19:36:07.637Z,81.83
2022-11-24T19:38:35.331Z,81.89
2022-11-24T19:41:06.964Z,82.17
2022-11-24T19:43:34.493Z,82.13
2022-11-24T19:46:08.945Z,82.01
2022-11-24T19:48:40.361Z,82.04
2022-11-24T19:51:10.104Z,82.19
2022-11-24T19:53:36.659Z,82.11
2022-11-24T19:56:05.314Z,82.14
2022-11-24T19:58:32.507Z,82.18
2022-11-24T20:01:14.965Z,82.23
2022-11-24T20:03:43.335Z,82.12
2022-11-24T20:06:12.218Z,81.83
2022-11-24T20:08:39.457Z,81.78
2022-11-24T20:11:12.117Z,81.27
2022-11-24T20:13:40.076Z,80.99
2022-11-24T20:16:11.774Z,80.97
2022-11-24T20:18:42.132Z,81.06
2022-11-24T20:21:17.448Z,80.84
2022-11-24T20:23:45.250Z,80.80
2022-11-24T20:26:19.622Z,80.36
2022-11-24T20:28:47.348Z,80.51
2022-11-24T20:31:16.523Z,80.36
2022-11-24T20:33:43.411Z,80.61
2022-11-24T20:36:18.627Z,80.61
2022-11-24T20:38:49.563Z,80.73
2022-11-24T20:41:21.897Z,80.61
2022-11-24T20:43:49.371Z,80.69
2022-11-24T20:46:24.440Z,80.59
2022-11-24T20:48:53.605Z,80.39
2022-11-24T20:51:22.963Z,80.11
2022-11-24T20:53:50.710Z,80.12
2022-11-24T20:56:20.108Z,79.65
2022-11-24T20:58:46.790Z,80.58
2022-11-24T21:01:16.456Z,81.73
2022-11-24T21:03:46.081Z,82.00
2022-11-24T21:06:13.888Z,82.06
2022-11-24T21:08:42.069Z,82.12
2022-11-24T21:11:11.615Z,81.72
2022-11-24T21:13:40.028Z,81.86
2022-11-24T21:16:19.390Z,81.63
2022-11-24T21:18:47.569Z,81.67
2022-11-24T21:21:14.561Z,81.33
2022-11-24T21:23:40.985Z,81.90
2022-11-24T21:26:13.078Z,81.64
2022-11-24T21:28:44.036Z,81.96
2022-11-24T21:31:16.422Z,81.87
2022-11-24T21:33:52.267Z,82.23
2022-11-24T21:36:21.919Z,81.96
2022-11-24T21:38:55.790Z,82.00
2022-11-24T21:41:23.705Z,82.14
2022-11-24T21:43:50.368Z,82.09
2022-11-24T21:46:17.265Z,82.23
2022-11-24T21:48:43.784Z,82.64
2022-11-24T21:51:15.963Z,82.47
2022-11-24T21:53:42.877Z,82.40
2022-11-24T21:56:20.629Z,82.32
2022-11-24T21:58:48.136Z,82.54
2022-11-24T22:01:16.039Z,82.76
2022-11-24T22:03:42.636Z,82.57
2022-11-24T22:06:09.270Z,82.09
2022-11-24T22:08:36.095Z,82.61
2022-11-24T22:11:08.137Z,82.44
2022-11-24T22:13:34.855Z,83.04
2022-11-24T22:16:03.723Z,82.61
2022-11-24T22:18:32.163Z,82.50
2022-11-24T22:20:58.628Z,82.71
2022-11-24T22:23:25.200Z,82.80
2022-11-24T22:25:51.660Z,82.55
2022-11-24T22:28:18.283Z,82.95
2022-11-24T22:30:44.753Z,82.94
2022-11-24T22:33:13.826Z,83.03
2022-11-24T22:35:40.231Z,83.04
2022-11-24T22:38:06.684Z,83.39
2022-11-24T22:40:33.069Z,83.28
2022-11-24T22:42:59.604Z,83.55
2022-11-24T22:45:26.443Z,83.63
2022-11-24T22:47:56.013Z,83.31
2022-11-24T22:50:22.461Z,83.84
2022-11-24T22:52:50.084Z,83.80
2022-11-24T22:55:16.566Z,83.88
2022-11-24T22:57:47.962Z,83.78
2022-11-24T23:00:15.440Z,84.14
2022-11-24T23:02:41.816Z,84.71
2022-11-24T23:05:08.577Z,84.66
2022-11-24T23:07:35.073Z,84.97
2022-11-24T23:10:02.343Z,85.08
2022-11-24T23:12:28.824Z,85.34
2022-11-24T23:14:55.332Z,85.16
2022-11-24T23:17:21.775Z,85.41
2022-11-24T23:19:48.179Z,85.62
2022-11-24T23:22:14.573Z,85.68
2022-11-24T23:24:40.957Z,85.73
2022-11-24T23:27:07.371Z,86.15
2022-11-24T23:29:33.804Z,86.21
2022-11-24T23:32:00.347Z,86.26
2022-11-24T23:34:26.748Z,87.33
2022-11-24T23:36:53.146Z,87.72
2022-11-24T23:39:19.573Z,87.93
2022-11-24T23:41:45.954Z,88.64
2022-11-24T23:44:12.333Z,89.28
2022-11-24T23:46:38.850Z,89.49
2022-11-24T23:49:05.219Z,90.00
2022-11-24T23:51:33.157Z,90.10
2022-11-24T23:54:00.396Z,90.56
2022-11-24T23:56:31.390Z,90.72
2022-11-24T23:58:58.526Z,91.30
